createdAt,value
2018-04-07T00:01:35.806Z,3.80
2018-04-07T00:04:03.255Z,3.80
2018-04-07T00:06:30.747Z,4.00
2018-04-07T00:08:58.203Z,3.50
2018-04-07T00:11:25.688Z,4.00
2018-04-07T00:13:53.713Z,3.70
2018-04-07T00:16:21.855Z,4.50
2018-04-07T00:18:49.293Z,3.87
2018-04-07T00:21:16.764Z,4.20
2018-04-07T00:23:44.333Z,4.70
2018-04-07T00:26:11.767Z,4.30
2018-04-07T00:28:39.218Z,4.10
2018-04-07T00:31:07.499Z,4.40
2018-04-07T00:33:34.976Z,5.10
2018-04-07T00:36:02.412Z,4.70
2018-04-07T00:38:29.848Z,4.90
2018-04-07T00:40:57.299Z,5.20
2018-04-07T00:43:25.567Z,4.70
2018-04-07T00:45:53.043Z,5.10
2018-04-07T00:48:20.493Z,5.17
2018-04-07T00:50:47.937Z,4.60
2018-04-07T00:53:15.383Z,5.03
2018-04-07T00:55:42.843Z,4.50
2018-04-07T00:58:10.297Z,4.30
2018-04-07T01:00:37.751Z,4.23
2018-04-07T01:03:05.243Z,4.47
2018-04-07T01:05:32.811Z,5.03
2018-04-07T01:08:00.247Z,4.47
2018-04-07T01:10:27.714Z,3.97
2018-04-07T01:12:55.155Z,3.77
2018-04-07T01:15:23.670Z,4.03
2018-04-07T01:17:51.103Z,4.80
2018-04-07T01:20:18.593Z,4.37
2018-04-07T01:22:46.033Z,4.00
2018-04-07T01:25:13.459Z,4.13
2018-04-07T01:27:41.685Z,4.53
2018-04-07T01:30:09.125Z,4.10
2018-04-07T01:32:36.594Z,4.73
2018-04-07T01:35:04.049Z,4.60
2018-04-07T01:37:31.569Z,4.43
2018-04-07T01:39:59.012Z,4.60
2018-04-07T01:42:26.473Z,5.70
2018-04-07T01:44:53.934Z,4.87
2018-04-07T01:47:21.378Z,5.80
2018-04-07T01:49:48.875Z,4.30
2018-04-07T01:52:16.328Z,4.80
2018-04-07T01:54:43.774Z,4.33
2018-04-07T01:57:11.244Z,4.90
2018-04-07T01:59:38.680Z,5.27
2018-04-07T02:02:06.136Z,5.20
2018-04-07T02:04:33.613Z,5.27
2018-04-07T02:07:01.083Z,5.33
2018-04-07T02:09:28.530Z,5.47
2018-04-07T02:11:55.969Z,5.53
2018-04-07T02:14:23.420Z,5.10
2018-04-07T02:16:50.851Z,5.33
2018-04-07T02:19:18.287Z,5.47
2018-04-07T02:21:46.534Z,5.43
2018-04-07T02:24:13.967Z,5.40
2018-04-07T02:26:41.461Z,5.43
2018-04-07T02:29:08.912Z,5.30
2018-04-07T02:31:36.375Z,5.43
2018-04-07T02:34:03.827Z,6.20
2018-04-07T02:36:31.274Z,5.30
2018-04-07T02:38:58.836Z,5.60
2018-04-07T02:41:26.259Z,5.27
2018-04-07T02:43:53.719Z,5.47
2018-04-07T02:46:21.203Z,5.50
2018-04-07T02:48:48.652Z,5.70
2018-04-07T02:51:16.195Z,6.70
2018-04-07T02:53:43.680Z,6.37
2018-04-07T02:56:11.104Z,5.30
2018-04-07T02:58:39.325Z,5.80
2018-04-07T03:01:06.780Z,5.93
2018-04-07T03:03:34.220Z,5.90
2018-04-07T03:06:01.691Z,6.60
2018-04-07T03:08:29.924Z,5.97
2018-04-07T03:10:57.381Z,5.97
2018-04-07T03:13:24.859Z,6.73
2018-04-07T03:15:52.332Z,6.10
2018-04-07T03:18:19.790Z,7.20
2018-04-07T03:20:47.235Z,5.97
2018-04-07T03:23:14.719Z,6.77
2018-04-07T03:25:42.164Z,6.60
2018-04-07T03:28:10.381Z,6.77
2018-04-07T03:30:37.833Z,6.20
2018-04-07T03:33:05.272Z,5.63
2018-04-07T03:35:32.712Z,6.47
2018-04-07T03:38:00.172Z,6.37
2018-04-07T03:40:28.426Z,6.67
2018-04-07T03:42:55.887Z,6.00
2018-04-07T03:45:23.336Z,5.90
2018-04-07T03:47:50.781Z,6.40
2018-04-07T03:50:18.237Z,6.20
2018-04-07T03:52:45.698Z,6.13
2018-04-07T03:55:13.141Z,5.57
2018-04-07T03:57:40.583Z,6.07
2018-04-07T04:00:08.022Z,6.10
2018-04-07T04:02:35.508Z,6.47
2018-04-07T04:05:02.973Z,6.80
2018-04-07T04:07:30.415Z,6.40
2018-04-07T04:09:57.903Z,6.90
2018-04-07T04:12:25.365Z,6.30
2018-04-07T04:14:53.591Z,7.00
2018-04-07T04:17:21.055Z,6.47
2018-04-07T04:19:48.547Z,6.40
2018-04-07T04:22:16.018Z,7.13
2018-04-07T04:24:44.763Z,6.80
2018-04-07T04:27:12.201Z,6.20
2018-04-07T04:29:39.652Z,6.10
2018-04-07T04:32:07.104Z,7.07
2018-04-07T04:34:35.310Z,6.87
2018-04-07T04:37:02.755Z,6.50
2018-04-07T04:39:30.207Z,7.33
2018-04-07T04:41:57.676Z,7.43
2018-04-07T04:44:25.114Z,6.57
2018-04-07T04:46:53.255Z,6.20
2018-04-07T04:49:20.753Z,6.33
2018-04-07T04:51:48.221Z,6.73
2018-04-07T04:54:15.661Z,7.20
2018-04-07T04:56:43.628Z,6.77
2018-04-07T04:59:12.046Z,6.77
2018-04-07T05:01:39.507Z,5.83
2018-04-07T05:04:06.942Z,5.73
2018-04-07T05:06:34.391Z,7.20
2018-04-07T05:09:01.837Z,6.00
2018-04-07T05:11:30.156Z,6.37
2018-04-07T05:13:58.398Z,6.10
2018-04-07T05:16:25.851Z,6.00
2018-04-07T05:18:54.085Z,5.63
2018-04-07T05:21:21.524Z,7.87
2018-04-07T05:23:49.008Z,7.00
2018-04-07T05:26:16.479Z,6.73
2018-04-07T05:28:43.916Z,6.87
2018-04-07T05:31:11.359Z,6.23
2018-04-07T05:33:38.807Z,7.00
2018-04-07T05:36:06.251Z,6.30
2018-04-07T05:38:34.477Z,6.50
2018-04-07T05:41:01.945Z,5.90
2018-04-07T05:43:29.387Z,6.87
2018-04-07T05:45:56.879Z,6.00
2018-04-07T05:48:24.328Z,5.87
2018-04-07T05:50:51.783Z,6.80
2018-04-07T05:53:19.247Z,6.90
2018-04-07T05:55:46.699Z,6.40
2018-04-07T05:58:14.156Z,5.30
2018-04-07T06:00:41.611Z,6.50
2018-04-07T06:03:09.114Z,6.70
2018-04-07T06:05:36.572Z,7.00
2018-04-07T06:08:04.784Z,6.63
2018-04-07T06:10:33.808Z,6.37
2018-04-07T06:13:01.708Z,7.00
2018-04-07T06:15:29.134Z,6.13
2018-04-07T06:17:56.717Z,6.80
2018-04-07T06:20:24.232Z,6.60
2018-04-07T06:22:52.986Z,7.10
2018-04-07T06:25:21.312Z,7.10
2018-04-07T06:27:48.878Z,7.80
2018-04-07T06:30:21.598Z,8.73
2018-04-07T06:32:49.631Z,7.10
2018-04-07T06:35:22.430Z,7.33
2018-04-07T06:37:50.588Z,7.97
2018-04-07T06:40:18.911Z,8.40
2018-04-07T06:42:46.731Z,7.30
2018-04-07T06:45:14.972Z,7.90
2018-04-07T06:47:43.319Z,8.97
2018-04-07T06:50:10.972Z,7.80
2018-04-07T06:52:39.816Z,8.17
2018-04-07T06:55:08.257Z,7.70
2018-04-07T06:57:37.592Z,8.63
2018-04-07T07:00:06.003Z,7.30
2018-04-07T07:02:33.582Z,6.80
2018-04-07T07:05:01.277Z,8.63
2018-04-07T07:07:30.499Z,9.03
2018-04-07T07:10:01.538Z,7.07
2018-04-07T07:12:36.839Z,8.47
2018-04-07T07:15:05.362Z,7.03
2018-04-07T07:17:37.660Z,7.77
2018-04-07T07:20:05.136Z,8.40
2018-04-07T07:22:33.561Z,8.30
2018-04-07T07:25:02.226Z,9.10
2018-04-07T07:27:29.728Z,8.10
2018-04-07T07:30:01.708Z,8.83
2018-04-07T07:32:29.152Z,8.87
2018-04-07T07:35:01.130Z,8.43
2018-04-07T07:37:28.646Z,8.13
2018-04-07T07:39:56.097Z,7.90
2018-04-07T07:42:23.603Z,7.40
2018-04-07T07:44:51.203Z,7.67
2018-04-07T07:47:18.648Z,8.50
2018-04-07T07:49:48.527Z,8.30
2018-04-07T07:52:17.479Z,9.07
2018-04-07T07:54:49.048Z,9.50
2018-04-07T07:57:21.539Z,8.93
2018-04-07T07:59:53.907Z,7.80
2018-04-07T08:02:23.133Z,8.40
2018-04-07T08:04:51.423Z,8.53
2018-04-07T08:07:19.686Z,8.50
2018-04-07T08:09:52.732Z,8.30
2018-04-07T08:12:20.199Z,8.93
2018-04-07T08:14:55.867Z,8.20
2018-04-07T08:17:31.583Z,9.70
2018-04-07T08:20:00.209Z,8.87
2018-04-07T08:22:27.772Z,8.80
2018-04-07T08:25:00.628Z,9.40
2018-04-07T08:27:28.627Z,9.73
2018-04-07T08:29:56.088Z,9.30
2018-04-07T08:32:25.795Z,9.10
2018-04-07T08:34:53.308Z,8.60
2018-04-07T08:37:21.628Z,8.90
2018-04-07T08:39:53.754Z,9.60
2018-04-07T08:42:28.416Z,8.40
2018-04-07T08:44:57.024Z,8.53
2018-04-07T08:50:07.628Z,10.00
2018-04-07T08:52:35.207Z,9.70
2018-04-07T08:55:02.666Z,9.47
2018-04-07T08:57:31.473Z,9.90
2018-04-07T08:59:58.998Z,9.07
2018-04-07T09:02:27.164Z,9.03
2018-04-07T09:04:59.416Z,9.80
2018-04-07T09:07:28.503Z,9.20
2018-04-07T09:09:56.131Z,9.60
2018-04-07T09:12:24.060Z,9.17
2018-04-07T09:14:52.266Z,10.13
2018-04-07T09:17:19.784Z,9.50
2018-04-07T09:19:48.722Z,9.93
2018-04-07T09:22:16.407Z,9.83
2018-04-07T09:24:44.692Z,10.10
2018-04-07T09:27:12.204Z,10.40
2018-04-07T09:29:40.382Z,8.97
2018-04-07T09:32:07.841Z,10.00
2018-04-07T09:34:35.298Z,9.33
2018-04-07T09:37:03.522Z,10.03
2018-04-07T09:39:31.340Z,11.50
2018-04-07T09:42:02.662Z,11.27
2018-04-07T09:44:30.159Z,9.97
2018-04-07T09:47:10.385Z,11.60
2018-04-07T10:29:13.649Z,10.77
2018-04-07T10:31:41.995Z,10.73
2018-04-07T10:34:11.682Z,11.70
2018-04-07T13:34:58.741Z,7.97
2018-04-07T13:37:27.241Z,8.90
2018-04-07T13:39:58.706Z,8.30
2018-04-07T13:42:30.027Z,9.13
2018-04-07T13:44:57.583Z,8.90
2018-04-07T13:47:25.219Z,8.20
2018-04-07T13:49:52.917Z,6.17
2018-04-07T13:52:21.027Z,6.70
2018-04-07T13:54:49.135Z,6.50
2018-04-07T13:57:20.469Z,6.70
2018-04-07T13:59:48.460Z,6.60
2018-04-07T14:02:16.522Z,6.30
2018-04-07T14:04:44.152Z,6.10
2018-04-07T14:07:15.705Z,5.10
2018-04-07T14:09:43.305Z,5.30
2018-04-07T14:12:10.882Z,4.97
2018-04-07T14:14:40.616Z,4.83
2018-04-07T14:17:12.360Z,6.43
2018-04-07T14:19:43.967Z,5.93
2018-04-07T14:22:12.299Z,5.90
2018-04-07T14:24:40.473Z,4.73
2018-04-07T14:27:10.231Z,5.73
2018-04-07T14:29:38.521Z,6.27
2018-04-07T14:32:06.135Z,5.50
2018-04-07T14:34:33.648Z,7.07
2018-04-07T14:37:04.399Z,6.27
2018-04-07T14:39:35.802Z,5.80
2018-04-07T14:42:03.414Z,5.63
2018-04-07T14:44:35.368Z,5.23
2018-04-07T14:47:03.042Z,5.13
2018-04-07T14:49:34.397Z,5.40
2018-04-07T14:52:05.964Z,4.17
2018-04-07T14:54:34.808Z,4.80
2018-04-07T14:57:02.420Z,5.17
2018-04-07T14:59:35.897Z,5.10
2018-04-07T15:02:03.964Z,4.93
2018-04-07T15:04:36.443Z,4.50
2018-04-07T15:07:04.955Z,4.57
2018-04-07T15:09:35.146Z,5.10
2018-04-07T15:12:02.771Z,5.07
2018-04-07T15:14:30.925Z,4.40
2018-04-07T15:16:59.023Z,3.43
2018-04-07T15:19:27.155Z,4.50
2018-04-07T15:21:54.949Z,4.10
2018-04-07T15:24:28.547Z,4.47
2018-04-07T15:27:06.518Z,4.17
2018-04-07T15:29:34.468Z,4.80
2018-04-07T15:32:03.618Z,4.20
2018-04-07T15:34:31.155Z,4.23
2018-04-07T15:37:01.293Z,3.70
2018-04-07T15:39:28.942Z,4.20
2018-04-07T15:41:56.559Z,4.87
2018-04-07T15:44:26.526Z,4.90
2018-04-07T15:46:54.071Z,4.23
2018-04-07T15:49:29.905Z,4.47
2018-04-07T15:51:58.157Z,4.43
2018-04-07T15:54:27.382Z,5.20
2018-04-07T15:56:56.099Z,5.67
2018-04-07T15:59:27.034Z,4.73
2018-04-07T16:01:54.758Z,6.00
2018-04-07T16:04:23.139Z,5.53
2018-04-07T16:06:51.044Z,4.80
2018-04-07T16:09:21.622Z,4.37
2018-04-07T16:11:50.916Z,4.20
2018-04-07T16:14:19.315Z,4.50
2018-04-07T16:16:47.097Z,4.50
2018-04-07T16:19:15.755Z,4.20
2018-04-07T16:21:51.851Z,4.27
2018-04-07T16:24:19.382Z,3.73
2018-04-07T16:26:48.119Z,3.57
2018-04-07T16:29:18.073Z,3.10
2018-04-07T16:31:46.366Z,3.60
2018-04-07T16:34:17.579Z,3.40
2018-04-07T16:36:49.479Z,3.50
2018-04-07T16:39:20.456Z,4.43
2018-04-07T16:41:49.582Z,4.17
2018-04-07T16:44:18.125Z,3.87
2018-04-07T16:46:53.127Z,4.27
2018-04-07T16:49:20.640Z,3.43
2018-04-07T16:51:50.402Z,3.30
2018-04-07T16:57:34.435Z,3.77
2018-04-07T17:00:01.981Z,2.70
2018-04-07T17:02:34.372Z,2.93
2018-04-07T17:05:02.503Z,2.90
2018-04-07T17:07:37.616Z,3.70
2018-04-07T17:10:19.737Z,5.70
2018-04-07T17:12:49.971Z,3.93
2018-04-07T17:15:22.026Z,6.60
2018-04-07T17:17:49.616Z,4.93
2018-04-07T17:20:20.921Z,3.70
2018-04-07T17:22:48.492Z,3.33
2018-04-07T17:25:19.618Z,4.03
2018-04-07T17:27:48.038Z,3.90
2018-04-07T17:30:15.616Z,4.60
2018-04-07T17:32:44.017Z,3.97
2018-04-07T17:35:16.589Z,4.60
2018-04-07T17:37:44.221Z,3.00
2018-04-07T17:40:12.022Z,4.17
2018-04-07T17:42:43.393Z,4.33
2018-04-07T17:45:12.564Z,3.70
2018-04-07T17:47:40.054Z,4.27
2018-04-07T17:50:08.261Z,3.50
2018-04-07T17:52:40.429Z,4.13
2018-04-07T17:55:08.653Z,4.40
2018-04-07T17:57:37.014Z,3.93
2018-04-07T18:00:08.233Z,4.10
2018-04-07T18:02:35.761Z,4.40
2018-04-07T18:05:03.465Z,4.60
2018-04-07T18:07:32.995Z,3.93
2018-04-07T18:10:00.680Z,3.83
2018-04-07T18:12:28.999Z,4.17
2018-04-07T18:56:29.405Z,6.37
2018-04-07T18:58:59.495Z,6.13
2018-04-07T19:01:28.365Z,5.70
2018-04-07T19:03:56.864Z,6.60
2018-04-07T19:06:24.395Z,5.33
2018-04-07T19:08:52.958Z,6.27
2018-04-07T19:11:20.456Z,5.87
2018-04-07T19:13:49.255Z,6.03
2018-04-07T19:16:17.593Z,6.80
2018-04-07T19:18:46.593Z,5.47
2018-04-07T19:21:14.492Z,5.23
2018-04-07T19:23:42.748Z,6.67
2018-04-07T19:26:10.699Z,5.13
2018-04-07T19:28:38.899Z,5.93
2018-04-07T19:31:06.946Z,6.27
2018-04-07T19:33:34.445Z,5.57
2018-04-07T19:36:02.006Z,6.27
2018-04-07T19:38:33.904Z,5.57
2018-04-07T19:41:03.036Z,6.10
2018-04-07T19:43:31.540Z,5.77
2018-04-07T19:45:59.056Z,5.83
2018-04-07T19:48:26.604Z,6.33
2018-04-07T19:50:56.221Z,6.00
2018-04-07T19:53:23.859Z,7.13
2018-04-07T19:55:53.037Z,6.60
2018-04-07T19:58:20.744Z,5.90
2018-04-07T20:00:48.990Z,6.67
2018-04-07T20:03:17.308Z,6.70
2018-04-07T20:05:49.750Z,5.77
2018-04-07T20:08:17.780Z,6.83
2018-04-07T20:10:51.219Z,6.53
2018-04-07T20:13:18.672Z,7.10
2018-04-07T20:15:46.140Z,6.30
2018-04-07T20:18:13.610Z,7.60
2018-04-07T20:20:41.174Z,6.57
2018-04-07T20:23:08.638Z,7.07
2018-04-07T20:25:36.867Z,6.57
2018-04-07T20:28:04.359Z,6.47
2018-04-07T20:30:31.808Z,6.43
2018-04-07T20:32:59.529Z,7.10
2018-04-07T20:35:27.091Z,7.27
2018-04-07T20:37:54.543Z,6.63
2018-04-07T20:40:24.742Z,5.77
2018-04-07T20:42:52.214Z,6.10
2018-04-07T20:45:19.659Z,6.70
2018-04-07T20:47:47.134Z,5.67
2018-04-07T20:50:14.643Z,5.33
2018-04-07T20:52:42.882Z,5.60
2018-04-07T20:55:10.347Z,5.43
2018-04-07T20:57:37.895Z,6.03
2018-04-07T21:00:05.381Z,5.63
2018-04-07T21:02:32.896Z,5.40
2018-04-07T21:05:00.450Z,4.83
2018-04-07T21:07:27.893Z,5.47
2018-04-07T21:09:55.499Z,5.30
2018-04-07T21:12:23.023Z,5.43
2018-04-07T21:14:50.504Z,4.93
2018-04-07T21:17:17.957Z,4.97
2018-04-07T21:19:45.434Z,5.33
2018-04-07T21:22:13.794Z,5.93
2018-04-07T21:24:41.255Z,5.57
2018-04-07T21:27:09.253Z,6.20
2018-04-07T21:29:36.725Z,5.73
2018-04-07T21:32:04.172Z,5.60
2018-04-07T21:34:32.711Z,5.03
2018-04-07T21:37:00.337Z,6.20
2018-04-07T21:39:27.811Z,6.00
2018-04-07T21:41:55.300Z,5.40
2018-04-07T21:44:24.203Z,5.80
2018-04-07T21:46:56.040Z,5.90
2018-04-07T21:49:23.568Z,6.00
2018-04-07T21:51:51.028Z,5.73
2018-04-07T21:54:18.484Z,5.50
2018-04-07T21:56:45.944Z,5.67
2018-04-07T21:59:13.427Z,5.47
2018-04-07T22:01:40.891Z,5.70
2018-04-07T22:04:08.412Z,5.60
2018-04-07T22:06:35.951Z,7.80
2018-04-07T22:09:03.442Z,5.73
2018-04-07T22:11:30.909Z,5.67
2018-04-07T22:13:58.383Z,6.27
2018-04-07T22:16:25.827Z,5.67
2018-04-07T22:18:53.297Z,6.30
2018-04-07T22:21:20.841Z,6.20
2018-04-07T22:23:48.339Z,6.93
2018-04-07T22:26:15.816Z,5.20
2018-04-07T22:28:43.346Z,6.00
2018-04-07T22:31:10.857Z,4.57
2018-04-07T22:33:38.372Z,6.20
2018-04-07T22:36:06.949Z,5.10
2018-04-07T22:38:34.378Z,5.50
2018-04-07T22:41:01.947Z,5.23
2018-04-07T22:43:29.452Z,4.60
2018-04-07T22:45:57.763Z,4.83
2018-04-07T22:48:25.990Z,5.10
2018-04-07T22:50:54.185Z,5.43
2018-04-07T22:53:21.697Z,5.03
2018-04-07T22:55:49.244Z,4.70
2018-04-07T22:58:16.943Z,5.20
2018-04-07T23:00:45.237Z,8.07
2018-04-07T23:03:12.722Z,5.93
2018-04-07T23:05:40.200Z,5.60
2018-04-07T23:08:09.565Z,5.03
2018-04-07T23:10:37.040Z,5.30
2018-04-07T23:13:04.520Z,5.80
2018-04-07T23:15:32.005Z,5.20
2018-04-07T23:17:59.493Z,4.80
2018-04-07T23:20:26.967Z,4.80
2018-04-07T23:22:54.483Z,5.53
2018-04-07T23:25:22.480Z,5.30
2018-04-07T23:27:52.100Z,5.33
2018-04-07T23:30:19.648Z,5.27
2018-04-07T23:32:47.940Z,5.77
2018-04-07T23:35:15.988Z,6.20
2018-04-07T23:37:43.500Z,6.00
2018-04-07T23:40:11.028Z,5.53
2018-04-07T23:42:39.363Z,5.07
2018-04-07T23:45:06.964Z,5.80
2018-04-07T23:47:35.251Z,5.53
2018-04-07T23:50:02.780Z,5.93
2018-04-07T23:52:30.264Z,5.37
2018-04-07T23:54:58.484Z,5.03
2018-04-07T23:57:25.972Z,5.60
2018-04-07T23:59:53.486Z,5.30
